Terminal Aerodrome Forecast
Issued by NWS Sterling, VA

Home | Current Version | Previous Version | Text Only | Print | Product List | Glossary On
Versions: 1 2 3 4 5 6 7 8 9 10 11 12 13 14 15 16 17
054
FTUS41 KLWX 220521
TAFCHO
TAF
KCHO 220521Z 2206/2306 VRB03KT P6SM BKN060 BKN130
     FM221100 28007KT P6SM SCT060 SCT130
     FM221400 33010G18KT P6SM SKC
     FM222300 35008KT P6SM SKC
     FM230400 VRB03KT P6SM SKC=

USA.gov is the U.S. government's official web portal to all federal, state and local government web resources and services.